Time;durP1;ratioP1;P1;durP2;ratioP2;P2;SDS_P1;SDS_P2;PMS_P1;PMS_P2;Temp;Humidity;BMP_temperature;BMP_pressure;BME280_temperature;BME280_humidity;BME280_pressure;Samples;Min_cycle;Max_cycle;Signal;HPM_P1;HPM_P2
2022/07/15 00:00:04;;;;;;;3.50;1.70;;;16.40;1.00;;;;;;6291347;22;20437;-89
2022/07/15 00:02:30;;;;;;;1.60;1.17;;;16.40;1.00;;;;;;6294325;22;20387;-90
2022/07/15 00:04:57;;;;;;;2.80;1.50;;;16.30;1.00;;;;;;6292014;22;20823;-90
2022/07/15 00:07:24;;;;;;;1.60;1.20;;;16.30;1.00;;;;;;6292973;22;20498;-90
2022/07/15 00:12:37;;;;;;;2.97;1.20;;;16.20;1.00;;;;;;6306229;22;20417;-89
2022/07/15 00:15:08;;;;;;;4.30;1.33;;;16.20;1.00;;;;;;6306145;22;20422;-89
2022/07/15 00:17:35;;;;;;;1.87;1.23;;;16.20;1.00;;;;;;6297479;22;20449;-90
2022/07/15 00:20:02;;;;;;;2.00;1.50;;;16.10;1.00;;;;;;6290378;22;20400;-89
2022/07/15 00:22:28;;;;;;;1.80;1.20;;;16.10;1.00;;;;;;6289645;22;20462;-89
2022/07/15 00:24:55;;;;;;;2.10;1.73;;;16.10;1.00;;;;;;6288825;22;20407;-89
2022/07/15 00:27:22;;;;;;;2.80;1.60;;;16.00;1.00;;;;;;6288509;22;20423;-88
2022/07/15 00:29:51;;;;;;;2.77;1.40;;;16.00;1.00;;;;;;6287324;22;20478;-89
2022/07/15 00:32:18;;;;;;;1.50;1.40;;;15.90;1.00;;;;;;6287327;22;20446;-89
2022/07/15 00:34:45;;;;;;;4.27;1.53;;;15.90;1.00;;;;;;6288112;22;20431;-89
2022/07/15 00:37:12;;;;;;;2.90;1.53;;;15.90;1.00;;;;;;6289307;22;20428;-92
2022/07/15 00:39:39;;;;;;;1.43;1.30;;;15.90;1.00;;;;;;6286786;22;20446;-90
2022/07/15 00:42:06;;;;;;;2.70;1.30;;;15.80;1.00;;;;;;6288177;22;20501;-89
2022/07/15 00:44:37;;;;;;;2.63;1.20;;;15.80;1.00;;;;;;6288890;22;20793;-90
2022/07/15 00:47:06;;;;;;;3.23;1.30;;;15.80;1.00;;;;;;6285297;22;20407;-88
2022/07/15 00:49:37;;;;;;;2.33;1.50;;;15.80;1.00;;;;;;6273369;22;20726;-90
2022/07/15 00:52:05;;;;;;;3.00;2.13;;;15.70;1.00;;;;;;6289509;22;20412;-90
2022/07/15 00:54:38;;;;;;;3.07;1.30;;;15.70;1.00;;;;;;6277293;22;20403;-90
2022/07/15 00:57:06;;;;;;;3.30;1.10;;;15.70;1.00;;;;;;6275356;22;20430;-90
2022/07/15 00:59:46;;;;;;;5.60;1.50;;;15.60;1.00;;;;;;6288625;22;20418;-90
2022/07/15 01:02:20;;;;;;;3.73;1.60;;;15.60;1.00;;;;;;6277269;22;20379;-90
2022/07/15 01:04:48;;;;;;;3.33;1.60;;;15.60;1.00;;;;;;6274810;22;20535;-88
2022/07/15 01:07:18;;;;;;;3.87;1.50;;;15.50;1.00;;;;;;6288451;22;20382;-90
2022/07/15 01:09:47;;;;;;;2.70;1.60;;;15.50;1.00;;;;;;6244413;22;20418;-91
2022/07/15 01:12:15;;;;;;;3.30;1.40;;;15.50;1.00;;;;;;6293796;22;20407;-91
2022/07/15 01:14:54;;;;;;;2.60;1.47;;;15.40;1.00;;;;;;6293373;22;21174;-91
2022/07/15 01:17:30;;;;;;;4.80;1.73;;;15.40;1.00;;;;;;6293437;22;20426;-89
2022/07/15 01:19:57;;;;;;;1.90;1.23;;;15.30;1.00;;;;;;6292778;22;20593;-90
2022/07/15 01:22:31;;;;;;;3.53;1.60;;;15.30;1.00;;;;;;6292003;22;20418;-90
2022/07/15 01:24:59;;;;;;;2.70;1.50;;;15.20;1.00;;;;;;6291075;22;20411;-88
2022/07/15 01:27:28;;;;;;;3.77;1.70;;;15.20;1.00;;;;;;6293907;22;20381;-89
2022/07/15 01:29:55;;;;;;;3.20;1.30;;;15.10;1.00;;;;;;6292154;22;20960;-89
2022/07/15 01:32:28;;;;;;;2.43;1.40;;;15.10;1.00;;;;;;6294746;22;20515;-90
2022/07/15 01:34:55;;;;;;;3.03;1.90;;;15.10;1.00;;;;;;6298319;22;20423;-89
2022/07/15 01:37:26;;;;;;;2.40;1.70;;;15.10;1.00;;;;;;6302265;22;20421;-89
2022/07/15 01:39:55;;;;;;;3.27;1.50;;;15.00;1.00;;;;;;6307082;22;20538;-88
2022/07/15 01:42:27;;;;;;;2.40;1.70;;;15.00;1.00;;;;;;6305878;22;20387;-89
2022/07/15 01:44:54;;;;;;;5.57;2.10;;;15.00;1.00;;;;;;6268037;22;20394;-90
2022/07/15 01:47:28;;;;;;;2.63;1.60;;;14.90;1.00;;;;;;6295720;22;20434;-91
2022/07/15 01:49:54;;;;;;;2.10;1.67;;;14.90;1.00;;;;;;6292479;22;20433;-91
2022/07/15 01:52:30;;;;;;;3.37;1.63;;;14.90;1.00;;;;;;6294148;22;20406;-90
2022/07/15 01:54:58;;;;;;;9.63;2.30;;;14.90;1.00;;;;;;6295876;22;20489;-89
2022/07/15 01:57:27;;;;;;;2.50;1.63;;;14.90;1.00;;;;;;6297117;22;20411;-90
2022/07/15 01:59:54;;;;;;;3.17;2.00;;;14.90;1.00;;;;;;6294002;22;21250;-91
2022/07/15 02:02:29;;;;;;;5.60;2.40;;;14.90;1.00;;;;;;6296574;22;20434;-90
2022/07/15 02:04:56;;;;;;;3.77;2.37;;;14.80;1.00;;;;;;6295918;22;20874;-91
2022/07/15 02:07:32;;;;;;;3.90;1.60;;;14.90;1.00;;;;;;6293893;22;20417;-90
2022/07/15 02:10:00;;;;;;;4.23;2.03;;;14.80;1.00;;;;;;6294979;22;20429;-89
2022/07/15 02:12:27;;;;;;;3.03;1.87;;;14.80;1.00;;;;;;6296549;22;20383;-90
2022/07/15 02:14:54;;;;;;;3.43;2.07;;;14.80;1.00;;;;;;6294172;22;23118;-89
2022/07/15 02:17:26;;;;;;;2.63;1.60;;;14.70;1.00;;;;;;6296697;22;20403;-91
2022/07/15 02:19:53;;;;;;;7.30;1.67;;;14.70;1.00;;;;;;6292935;22;20944;-90
2022/07/15 02:22:20;;;;;;;5.77;2.03;;;14.70;1.00;;;;;;6294929;22;20474;-90
2022/07/15 02:24:48;;;;;;;9.50;2.50;;;14.60;1.00;;;;;;6294620;22;20399;-91
2022/07/15 02:27:16;;;;;;;3.40;2.00;;;14.60;1.00;;;;;;6295505;22;20564;-90
2022/07/15 02:29:49;;;;;;;4.07;1.70;;;14.60;1.00;;;;;;6291924;22;20403;-90
2022/07/15 02:32:16;;;;;;;4.67;1.90;;;14.50;1.00;;;;;;6294229;22;20438;-91
2022/07/15 02:34:52;;;;;;;4.70;2.13;;;14.50;1.00;;;;;;6293732;22;20395;-90
2022/07/15 02:37:19;;;;;;;6.23;2.70;;;14.50;1.00;;;;;;6295898;22;20429;-90
2022/07/15 02:39:48;;;;;;;5.80;1.70;;;14.50;1.00;;;;;;6294217;22;20427;-90
2022/07/15 02:42:16;;;;;;;8.37;2.50;;;14.40;1.00;;;;;;6295241;22;21006;-87
2022/07/15 02:44:49;;;;;;;5.73;1.50;;;14.40;1.00;;;;;;6292135;22;20403;-89
2022/07/15 02:47:16;;;;;;;5.60;2.30;;;14.40;1.00;;;;;;6294183;22;20399;-89
2022/07/15 02:49:49;;;;;;;2.53;1.30;;;14.40;1.00;;;;;;6292957;22;20506;-89
2022/07/15 02:52:16;;;;;;;4.43;1.90;;;14.40;1.00;;;;;;6292190;22;20503;-90
2022/07/15 02:54:47;;;;;;;6.30;1.70;;;14.30;1.00;;;;;;6291933;22;20469;-89
2022/07/15 02:57:15;;;;;;;6.17;2.33;;;14.30;1.00;;;;;;6291316;22;20454;-90
2022/07/15 02:59:51;;;;;;;5.47;1.90;;;14.30;1.00;;;;;;6291410;22;20387;-88
2022/07/15 03:02:18;;;;;;;4.27;1.60;;;14.30;1.00;;;;;;6293430;22;20411;-90
2022/07/15 03:04:48;;;;;;;5.40;1.80;;;14.30;1.00;;;;;;6293129;22;20429;-91
2022/07/15 03:07:15;;;;;;;5.90;2.60;;;14.30;1.00;;;;;;6295378;22;20420;-89
2022/07/15 03:09:47;;;;;;;3.00;1.87;;;14.30;1.00;;;;;;6294116;22;20443;-90
2022/07/15 03:12:15;;;;;;;5.73;3.10;;;14.30;1.00;;;;;;6294547;22;20418;-88
2022/07/15 03:14:54;;;;;;;4.00;2.20;;;14.20;1.00;;;;;;6293483;22;20395;-89
2022/07/15 03:17:24;;;;;;;5.60;1.97;;;14.30;1.00;;;;;;6293691;22;20379;-89
2022/07/15 03:19:50;;;;;;;7.93;2.20;;;14.20;1.00;;;;;;6293421;22;20455;-89
2022/07/15 03:22:17;;;;;;;3.03;2.00;;;14.30;1.00;;;;;;6295220;22;20433;-89
2022/07/15 03:24:48;;;;;;;4.53;1.90;;;14.30;1.00;;;;;;6292567;22;20397;-90
2022/07/15 03:27:17;;;;;;;4.00;1.80;;;14.30;1.00;;;;;;6296261;22;20399;-90
2022/07/15 03:29:49;;;;;;;5.50;2.07;;;14.20;1.00;;;;;;6292381;22;20403;-88
2022/07/15 03:32:17;;;;;;;4.40;3.00;;;14.30;1.00;;;;;;6294171;22;20411;-88
2022/07/15 03:34:49;;;;;;;9.07;2.10;;;14.20;1.00;;;;;;6277095;22;20388;-90
2022/07/15 03:37:18;;;;;;;4.77;2.20;;;14.20;1.00;;;;;;6278575;22;20419;-89
2022/07/15 03:39:51;;;;;;;5.17;2.23;;;14.20;1.00;;;;;;6294748;22;20411;-88
2022/07/15 03:42:19;;;;;;;6.90;2.80;;;14.20;1.00;;;;;;6296587;22;20459;-90
2022/07/15 03:44:50;;;;;;;4.77;2.33;;;14.20;1.00;;;;;;6282189;22;20516;-89
2022/07/15 03:47:17;;;;;;;6.00;2.17;;;14.20;1.00;;;;;;6292780;22;20427;-88
2022/07/15 03:49:47;;;;;;;7.37;2.53;;;14.20;1.00;;;;;;6293003;22;20407;-89
2022/07/15 03:52:14;;;;;;;4.30;2.10;;;14.20;1.00;;;;;;6294346;22;20427;-89
2022/07/15 03:54:53;;;;;;;4.17;2.13;;;14.10;1.00;;;;;;6292599;22;20391;-89
2022/07/15 03:57:26;;;;;;;6.53;2.40;;;14.20;1.00;;;;;;6293511;22;20409;-90
2022/07/15 03:59:54;;;;;;;4.30;2.70;;;14.20;1.00;;;;;;6292162;22;20509;-89
2022/07/15 04:02:21;;;;;;;6.03;2.90;;;14.20;1.00;;;;;;6294189;22;20395;-90
2022/07/15 04:04:48;;;;;;;7.53;2.63;;;14.10;1.00;;;;;;6293339;22;20477;-89
2022/07/15 04:07:15;;;;;;;5.40;2.70;;;14.20;1.00;;;;;;6294461;22;20464;-89
2022/07/15 04:09:51;;;;;;;5.67;2.17;;;14.20;1.00;;;;;;6290056;22;20442;-90
2022/07/15 04:12:18;;;;;;;8.20;2.67;;;14.20;1.00;;;;;;6290564;22;20441;-89
2022/07/15 04:14:49;;;;;;;3.60;1.80;;;14.20;1.00;;;;;;6289687;22;20417;-89
2022/07/15 04:17:16;;;;;;;4.90;1.90;;;14.30;1.00;;;;;;6289735;22;20430;-89
2022/07/15 04:19:48;;;;;;;7.13;2.70;;;14.30;1.00;;;;;;6288885;22;20410;-90
2022/07/15 04:22:15;;;;;;;8.10;2.57;;;14.30;1.00;;;;;;6292851;22;20781;-88
2022/07/15 04:24:49;;;;;;;3.73;2.03;;;14.30;1.00;;;;;;6277698;22;20430;-89
2022/07/15 04:27:16;;;;;;;7.60;2.23;;;14.30;1.00;;;;;;6291759;22;20395;-89
2022/07/15 04:29:49;;;;;;;7.23;2.40;;;14.40;1.00;;;;;;6291762;22;20426;-89
2022/07/15 04:32:17;;;;;;;7.70;2.23;;;14.40;1.00;;;;;;6291375;22;20415;-88
2022/07/15 04:34:50;;;;;;;4.07;2.27;;;14.40;1.00;;;;;;6288941;22;20391;-90
2022/07/15 04:37:17;;;;;;;7.83;2.93;;;14.40;1.00;;;;;;6290114;22;20427;-90
2022/07/15 04:39:53;;;;;;;4.70;2.43;;;14.40;1.00;;;;;;6290122;22;20403;-89
2022/07/15 04:42:20;;;;;;;3.83;2.40;;;14.40;1.00;;;;;;6292067;22;20430;-90
2022/07/15 04:44:49;;;;;;;3.80;2.17;;;14.30;1.00;;;;;;6259938;22;20454;-89
2022/07/15 04:47:17;;;;;;;8.87;4.70;;;14.30;1.00;;;;;;6289742;22;20453;-90
2022/07/15 04:52:34;;;;;;;4.67;1.90;;;14.20;1.00;;;;;;6296606;22;20422;-89
2022/07/15 04:55:08;;;;;;;4.33;2.20;;;14.10;1.00;;;;;;6291260;22;20395;-89
2022/07/15 04:57:35;;;;;;;7.97;3.13;;;14.10;1.00;;;;;;6290188;22;20469;-88
2022/07/15 05:00:12;;;;;;;3.60;2.40;;;14.20;1.00;;;;;;6290290;22;20427;-88
2022/07/15 05:02:39;;;;;;;5.27;2.20;;;14.30;1.00;;;;;;6289306;22;20407;-88
2022/07/15 05:05:08;;;;;;;6.30;2.30;;;14.40;1.00;;;;;;6293327;22;20455;-89
2022/07/15 05:07:36;;;;;;;4.87;2.13;;;14.60;1.00;;;;;;6289637;22;21074;-88
2022/07/15 05:10:08;;;;;;;4.40;3.10;;;14.70;1.00;;;;;;6291338;22;20406;-90
2022/07/15 05:12:35;;;;;;;2.83;1.70;;;14.80;1.00;;;;;;6289548;22;20415;-89
2022/07/15 05:15:12;;;;;;;7.63;3.03;;;14.90;1.00;;;;;;6290147;22;20470;-89
2022/07/15 05:17:41;;;;;;;7.13;2.27;;;15.10;1.00;;;;;;6290841;22;20399;-89
2022/07/15 05:20:09;;;;;;;4.33;2.30;;;15.10;1.00;;;;;;6291224;22;20403;-89
2022/07/15 05:22:36;;;;;;;11.10;2.63;;;15.10;1.00;;;;;;6290545;22;20477;-89
2022/07/15 05:25:08;;;;;;;5.13;2.40;;;15.10;1.00;;;;;;6291602;22;20549;-88
2022/07/15 05:27:35;;;;;;;5.43;1.87;;;15.10;1.00;;;;;;6290758;22;20426;-89
2022/07/15 05:30:08;;;;;;;12.13;4.40;;;15.00;1.00;;;;;;6289972;22;20397;-89
2022/07/15 05:32:39;;;;;;;4.40;2.40;;;15.10;1.00;;;;;;6291662;22;20430;-90
2022/07/15 05:35:14;;;;;;;7.60;2.67;;;15.10;1.00;;;;;;6291800;22;20411;-89
2022/07/15 05:37:49;;;;;;;8.10;2.13;;;15.10;1.00;;;;;;6291613;22;20462;-91
2022/07/15 05:40:16;;;;;;;4.73;2.10;;;15.20;1.00;;;;;;6292963;22;20482;-88
2022/07/15 05:42:48;;;;;;;6.87;2.00;;;15.20;1.00;;;;;;6290636;22;20395;-89
2022/07/15 05:45:19;;;;;;;5.43;2.27;;;15.30;1.00;;;;;;6292498;22;20492;-87
2022/07/15 05:47:51;;;;;;;6.60;2.20;;;15.40;1.00;;;;;;6291791;22;20387;-86
2022/07/15 05:50:18;;;;;;;4.17;2.17;;;15.50;1.00;;;;;;6292232;22;20509;-89
2022/07/15 05:52:48;;;;;;;6.37;2.40;;;15.50;1.00;;;;;;6276381;22;20567;-89
2022/07/15 05:55:15;;;;;;;3.57;1.50;;;15.50;1.00;;;;;;6290571;22;20923;-89
2022/07/15 05:57:49;;;;;;;5.90;3.13;;;15.60;1.00;;;;;;6290514;22;20465;-89
2022/07/15 06:00:17;;;;;;;7.23;2.53;;;15.60;1.00;;;;;;6290474;22;20442;-90
2022/07/15 06:02:51;;;;;;;9.40;1.80;;;15.70;1.00;;;;;;6290784;22;20383;-89
2022/07/15 06:05:19;;;;;;;5.83;2.27;;;15.90;1.00;;;;;;6275704;22;20410;-89
2022/07/15 06:07:48;;;;;;;2.60;1.60;;;15.90;1.00;;;;;;6287729;22;20402;-89
2022/07/15 06:10:15;;;;;;;4.57;1.47;;;16.00;1.00;;;;;;6289706;22;20514;-89
2022/07/15 06:12:47;;;;;;;6.07;2.00;;;16.00;1.00;;;;;;6290893;22;20419;-90
2022/07/15 06:15:14;;;;;;;3.67;1.73;;;15.90;1.00;;;;;;6291061;22;20418;-89
2022/07/15 06:17:44;;;;;;;5.20;2.10;;;16.10;1.00;;;;;;6289588;22;20423;-90
2022/07/15 06:20:15;;;;;;;6.03;1.50;;;16.30;1.00;;;;;;6290280;22;20489;-89
2022/07/15 06:22:51;;;;;;;6.13;1.90;;;16.50;1.00;;;;;;6290400;22;20419;-89
2022/07/15 06:25:19;;;;;;;9.63;1.77;;;16.70;1.00;;;;;;6291787;22;20469;-89
2022/07/15 06:27:48;;;;;;;2.43;1.33;;;16.70;1.00;;;;;;6291388;22;20398;-90
2022/07/15 06:30:15;;;;;;;5.63;2.10;;;16.90;1.00;;;;;;6291507;22;20429;-90
2022/07/15 06:32:48;;;;;;;4.20;1.60;;;17.00;1.00;;;;;;6289901;22;20463;-90
2022/07/15 06:35:19;;;;;;;4.23;1.60;;;17.20;1.00;;;;;;6292761;22;20964;-89
2022/07/15 06:37:46;;;;;;;2.50;1.40;;;17.30;1.00;;;;;;6273683;22;20473;-88
2022/07/15 06:40:14;;;;;;;2.77;1.10;;;17.40;1.00;;;;;;6290022;22;20403;-91
2022/07/15 06:42:41;;;;;;;7.87;2.00;;;17.40;1.00;;;;;;6291037;22;20407;-89
2022/07/15 06:45:11;;;;;;;3.43;1.27;;;17.50;1.00;;;;;;6292280;22;20396;-89
2022/07/15 06:47:41;;;;;;;2.67;1.37;;;17.40;1.00;;;;;;6290376;22;20428;-90
2022/07/15 06:50:09;;;;;;;2.03;1.30;;;17.40;1.00;;;;;;6292190;22;20447;-89
2022/07/15 06:52:38;;;;;;;6.20;1.67;;;17.60;1.00;;;;;;6289004;22;20485;-90
2022/07/15 06:55:13;;;;;;;2.90;1.43;;;17.70;1.00;;;;;;6291497;22;20423;-88
2022/07/15 06:57:40;;;;;;;4.40;1.93;;;17.90;1.00;;;;;;6291040;22;20430;-87
2022/07/15 07:00:11;;;;;;;3.90;2.27;;;17.80;1.00;;;;;;6292640;22;20415;-89
2022/07/15 07:02:38;;;;;;;4.47;1.57;;;17.80;1.00;;;;;;6289596;22;20416;-90
2022/07/15 07:05:12;;;;;;;6.70;2.47;;;17.70;1.00;;;;;;6292247;22;20433;-90
2022/07/15 07:07:41;;;;;;;3.67;1.77;;;17.70;1.00;;;;;;6290551;22;20492;-89
2022/07/15 07:10:11;;;;;;;3.70;1.67;;;17.80;1.00;;;;;;6275703;22;20406;-90
2022/07/15 07:12:40;;;;;;;5.30;1.80;;;18.10;1.00;;;;;;6288462;22;20498;-89
2022/07/15 07:15:09;;;;;;;4.90;1.60;;;18.20;1.00;;;;;;6295107;22;20453;-89
2022/07/15 07:17:38;;;;;;;2.20;1.33;;;18.30;1.00;;;;;;6290267;22;20918;-89
2022/07/15 07:20:09;;;;;;;3.27;1.47;;;18.30;1.00;;;;;;6290310;22;20397;-89
2022/07/15 07:22:38;;;;;;;4.23;1.10;;;18.40;1.00;;;;;;6291216;22;20391;-90
2022/07/15 07:25:12;;;;;;;5.00;1.57;;;18.30;1.00;;;;;;6294139;22;20465;-90
2022/07/15 07:27:39;;;;;;;3.87;1.50;;;18.30;1.00;;;;;;6274002;22;20387;-91
2022/07/15 07:30:09;;;;;;;2.70;1.10;;;18.50;1.00;;;;;;6292036;22;20432;-89
2022/07/15 07:32:36;;;;;;;3.33;1.20;;;18.60;1.00;;;;;;6289974;22;20533;-89
2022/07/15 07:35:07;;;;;;;3.43;1.50;;;18.60;1.00;;;;;;6290999;22;20458;-89
2022/07/15 07:37:37;;;;;;;2.90;1.17;;;18.70;1.00;;;;;;6292146;22;20407;-89
2022/07/15 07:40:12;;;;;;;3.20;1.40;;;18.70;1.00;;;;;;6290427;22;20385;-90
2022/07/15 07:42:40;;;;;;;3.73;1.70;;;18.50;1.00;;;;;;6289782;22;20490;-90
2022/07/15 07:45:10;;;;;;;3.70;1.50;;;18.60;1.00;;;;;;6275850;22;20395;-90
2022/07/15 07:47:40;;;;;;;2.83;1.40;;;18.60;1.00;;;;;;6288566;22;20433;-90
2022/07/15 07:50:10;;;;;;;4.53;2.17;;;18.70;1.00;;;;;;6292283;22;20517;-90
2022/07/15 07:52:37;;;;;;;1.73;1.00;;;18.70;1.00;;;;;;6289283;22;20411;-90
2022/07/15 07:55:09;;;;;;;2.40;1.30;;;18.60;1.00;;;;;;6290444;22;20403;-89
2022/07/15 07:57:48;;;;;;;2.90;1.10;;;18.70;1.00;;;;;;6273863;22;20510;-90
2022/07/15 08:00:16;;;;;;;2.83;1.17;;;19.00;1.00;;;;;;6290416;22;20433;-90
2022/07/15 08:02:51;;;;;;;1.90;1.10;;;19.10;1.00;;;;;;6288669;22;21006;-90
2022/07/15 08:05:18;;;;;;;7.57;1.53;;;19.20;1.00;;;;;;6291915;22;20534;-87
2022/07/15 08:07:48;;;;;;;3.73;1.20;;;19.10;1.00;;;;;;6271667;22;20470;-91
2022/07/15 08:10:16;;;;;;;1.90;1.03;;;19.00;1.00;;;;;;6287989;22;20433;-90
2022/07/15 08:12:52;;;;;;;3.53;1.00;;;19.00;1.00;;;;;;6288259;22;20486;-89
2022/07/15 08:15:18;;;;;;;4.17;1.03;;;18.90;1.00;;;;;;6290157;22;20468;-90
2022/07/15 08:17:49;;;;;;;5.50;1.53;;;18.90;1.00;;;;;;6291610;22;20414;-88
2022/07/15 08:20:16;;;;;;;3.13;1.27;;;18.90;1.00;;;;;;6289221;22;20487;-91
2022/07/15 08:22:46;;;;;;;3.47;1.40;;;19.20;1.00;;;;;;6289205;22;20395;-89
2022/07/15 08:25:13;;;;;;;4.47;1.30;;;19.40;1.00;;;;;;6287054;22;20597;-89
2022/07/15 08:27:40;;;;;;;3.20;1.43;;;19.40;1.00;;;;;;6289303;22;20481;-89
2022/07/15 08:30:11;;;;;;;1.93;1.40;;;19.30;1.00;;;;;;6288893;22;20403;-88
2022/07/15 08:32:38;;;;;;;3.27;1.37;;;19.50;1.00;;;;;;6289638;22;20442;-88
2022/07/15 08:35:09;;;;;;;1.97;1.33;;;19.50;1.00;;;;;;6290125;22;20449;-88
2022/07/15 08:37:37;;;;;;;4.30;1.13;;;19.40;1.00;;;;;;6288735;22;20411;-90
2022/07/15 08:40:11;;;;;;;2.67;1.50;;;19.30;1.00;;;;;;6288655;22;20402;-90
2022/07/15 08:42:42;;;;;;;2.60;1.40;;;19.30;1.00;;;;;;6290137;22;20870;-90
2022/07/15 08:45:12;;;;;;;2.50;1.27;;;19.30;1.00;;;;;;6288257;22;20426;-90
2022/07/15 08:47:51;;;;;;;2.27;1.30;;;19.50;1.00;;;;;;6291261;22;20422;-91
2022/07/15 08:50:19;;;;;;;3.70;1.40;;;19.80;1.00;;;;;;6292130;22;20399;-90
2022/07/15 08:52:51;;;;;;;5.03;1.33;;;20.00;1.00;;;;;;6289828;22;20402;-90
2022/07/15 08:55:18;;;;;;;1.60;1.03;;;20.00;1.00;;;;;;6290410;22;20422;-90
2022/07/15 08:57:49;;;;;;;3.03;1.00;;;19.90;1.00;;;;;;6288413;22;20439;-89
2022/07/15 09:00:18;;;;;;;2.00;1.53;;;19.70;1.00;;;;;;6291202;22;20534;-90
2022/07/15 09:02:51;;;;;;;5.83;1.57;;;19.60;1.00;;;;;;6291694;22;20426;-91
2022/07/15 09:05:27;;;;;;;7.67;1.60;;;19.50;1.00;;;;;;6294214;22;20977;-90
2022/07/15 09:08:05;;;;;;;4.97;1.20;;;19.50;1.00;;;;;;6283095;22;20425;-90
2022/07/15 09:10:50;;;;;;;2.67;1.13;;;19.50;1.00;;;;;;6260496;22;20497;-90
2022/07/15 09:13:28;;;;;;;4.33;1.30;;;19.50;1.00;;;;;;6273930;22;20397;-88
2022/07/15 09:15:57;;;;;;;1.80;1.13;;;19.50;1.00;;;;;;6270433;22;22139;-89
2022/07/15 09:18:33;;;;;;;4.20;1.50;;;19.50;1.00;;;;;;6290139;22;20398;-90
2022/07/15 09:21:01;;;;;;;4.30;0.97;;;19.60;1.00;;;;;;6289455;22;20879;-90
2022/07/15 09:23:30;;;;;;;1.90;1.40;;;19.60;1.00;;;;;;6291607;22;20379;-91
2022/07/15 09:25:59;;;;;;;3.17;1.60;;;19.80;1.00;;;;;;6291006;22;20411;-89
2022/07/15 09:28:38;;;;;;;4.53;1.23;;;19.90;1.00;;;;;;6274809;22;20378;-90
2022/07/15 09:34:02;;;;;;;2.70;1.20;;;20.20;1.00;;;;;;6289316;22;20407;-89
2022/07/15 09:36:30;;;;;;;1.90;1.33;;;20.10;1.00;;;;;;6293174;22;20402;-90
2022/07/15 09:38:59;;;;;;;2.57;1.33;;;20.10;1.00;;;;;;6291549;22;20817;-89
2022/07/15 09:41:30;;;;;;;4.37;1.20;;;20.60;1.00;;;;;;6293498;22;20632;-90
2022/07/15 09:43:59;;;;;;;2.20;1.23;;;21.10;1.00;;;;;;6291584;22;20407;-89
2022/07/15 09:46:42;;;;;;;4.50;1.40;;;21.20;1.00;;;;;;6296508;22;20407;-90
2022/07/15 09:49:12;;;;;;;4.63;1.27;;;21.30;1.00;;;;;;6293129;22;20413;-89
2022/07/15 09:51:50;;;;;;;3.20;1.37;;;21.60;1.00;;;;;;6294468;22;20407;-91
2022/07/15 09:54:19;;;;;;;1.77;0.97;;;22.00;1.00;;;;;;6291626;22;20526;-90
2022/07/15 09:56:53;;;;;;;1.40;1.00;;;21.90;1.00;;;;;;6289585;22;20485;-90
2022/07/15 09:59:20;;;;;;;5.00;1.63;;;22.00;1.00;;;;;;6290128;22;20497;-90
2022/07/15 10:01:54;;;;;;;1.83;0.83;;;22.00;1.00;;;;;;6277585;22;20489;-89
2022/07/15 10:04:28;;;;;;;2.23;0.90;;;22.20;1.00;;;;;;6292445;22;20406;-90
2022/07/15 10:06:59;;;;;;;3.83;1.10;;;22.40;1.00;;;;;;6274223;22;20843;-91
2022/07/15 10:09:33;;;;;;;2.50;1.30;;;22.70;1.00;;;;;;6293889;22;20418;-89
2022/07/15 10:12:03;;;;;;;3.03;1.10;;;23.00;1.00;;;;;;6291410;22;20430;-89
2022/07/15 10:15:09;;;;;;;1.57;1.10;;;23.90;1.00;;;;;;6296896;22;20395;-90
2022/07/15 10:18:00;;;;;;;3.00;1.00;;;24.00;1.00;;;;;;6296575;22;20399;-88
2022/07/15 10:20:41;;;;;;;3.03;1.00;;;23.10;1.00;;;;;;6295038;22;20415;-89
2022/07/15 10:23:32;;;;;;;4.07;1.77;;;22.50;1.00;;;;;;6296050;22;20418;-88
2022/07/15 10:26:19;;;;;;;2.00;1.07;;;22.20;1.00;;;;;;6292442;22;20386;-90
2022/07/15 10:28:57;;;;;;;2.03;1.17;;;22.00;1.00;;;;;;6260598;22;20418;-88
2022/07/15 10:31:26;;;;;;;4.80;1.60;;;22.70;1.00;;;;;;6280244;22;20497;-89
2022/07/15 10:34:20;;;;;;;1.70;1.10;;;23.10;1.00;;;;;;6269550;22;20484;-88
2022/07/15 10:37:09;;;;;;;2.20;1.10;;;22.70;1.00;;;;;;6291740;22;20411;-88
2022/07/15 10:39:55;;;;;;;2.80;1.30;;;22.20;1.00;;;;;;6278770;22;20379;-88
2022/07/15 10:42:28;;;;;;;3.97;1.43;;;21.80;1.00;;;;;;6295593;22;20453;-88
2022/07/15 10:45:09;;;;;;;1.63;1.03;;;21.40;1.00;;;;;;6295259;22;20463;-90
2022/07/15 10:47:37;;;;;;;2.03;1.30;;;21.10;1.00;;;;;;6294432;22;20411;-89
2022/07/15 10:50:40;;;;;;;2.03;1.30;;;21.10;1.00;;;;;;6295595;22;20516;-90
2022/07/15 10:53:18;;;;;;;4.50;1.50;;;21.40;1.00;;;;;;6293301;22;20387;-88
2022/07/15 10:55:57;;;;;;;2.93;1.23;;;21.50;1.00;;;;;;6293461;22;20460;-89
2022/07/15 10:58:29;;;;;;;1.53;1.00;;;21.30;1.00;;;;;;6295191;22;20469;-91
2022/07/15 11:01:11;;;;;;;3.30;1.43;;;21.00;1.00;;;;;;6266794;22;21226;-90
2022/07/15 11:04:13;;;;;;;2.13;0.90;;;20.80;1.00;;;;;;6298089;22;20375;-89
2022/07/15 11:07:13;;;;;;;3.10;1.40;;;20.50;1.00;;;;;;6289050;22;20411;-90
2022/07/15 11:09:51;;;;;;;5.37;1.80;;;20.80;1.00;;;;;;6288539;22;20450;-89
2022/07/15 11:12:20;;;;;;;2.50;1.23;;;21.50;1.00;;;;;;6289442;22;20823;-89
2022/07/15 11:14:52;;;;;;;3.50;1.63;;;22.20;1.00;;;;;;6289845;22;20439;-89
2022/07/15 11:17:22;;;;;;;5.23;2.10;;;23.10;1.00;;;;;;6289152;22;20466;-90
2022/07/15 11:19:51;;;;;;;1.70;0.90;;;24.50;1.00;;;;;;6286993;22;20406;-89
2022/07/15 11:22:20;;;;;;;3.60;1.03;;;25.80;1.00;;;;;;6280977;22;20395;-90
2022/07/15 11:24:49;;;;;;;3.40;1.53;;;25.00;1.00;;;;;;6273164;22;21130;-89
2022/07/15 11:27:20;;;;;;;5.53;1.47;;;24.20;1.00;;;;;;6280495;22;20402;-88
2022/07/15 11:29:52;;;;;;;3.00;1.73;;;23.50;1.00;;;;;;6280130;22;20404;-90
2022/07/15 11:32:20;;;;;;;3.80;1.40;;;23.20;1.00;;;;;;6294730;22;20391;-90
2022/07/15 11:34:49;;;;;;;2.30;1.53;;;23.10;1.00;;;;;;6293058;22;21035;-91
2022/07/15 11:37:19;;;;;;;3.13;1.43;;;23.50;1.00;;;;;;6294490;22;20422;-91
2022/07/15 11:40:11;;;;;;;4.13;2.03;;;24.10;1.00;;;;;;6295415;22;20414;-92
2022/07/15 11:45:34;;;;;;;4.50;1.63;;;23.90;1.00;;;;;;6295119;22;20469;-89
2022/07/15 11:48:01;;;;;;;1.73;1.10;;;23.50;1.00;;;;;;6287133;22;20457;-90
2022/07/15 11:50:31;;;;;;;2.80;1.43;;;22.90;1.00;;;;;;6293287;22;20463;-89
2022/07/15 11:53:00;;;;;;;5.23;1.43;;;22.30;1.00;;;;;;6292175;22;20455;-90
2022/07/15 11:55:31;;;;;;;9.40;1.63;;;22.10;1.00;;;;;;6294260;22;20407;-89
2022/07/15 11:57:58;;;;;;;2.93;1.30;;;21.90;1.00;;;;;;6293383;22;20513;-91
2022/07/15 12:00:32;;;;;;;3.07;1.00;;;21.60;1.00;;;;;;6293066;22;20403;-90
2022/07/15 12:03:10;;;;;;;4.30;1.77;;;21.60;1.00;;;;;;6291654;22;20534;-90
2022/07/15 12:05:40;;;;;;;5.63;1.50;;;22.10;1.00;;;;;;6293568;22;20450;-89
2022/07/15 12:08:11;;;;;;;1.83;1.13;;;23.20;1.00;;;;;;6288255;22;20398;-90
2022/07/15 12:10:39;;;;;;;3.70;1.20;;;23.70;1.00;;;;;;6289363;22;20443;-89
2022/07/15 12:13:12;;;;;;;3.13;1.10;;;23.40;1.00;;;;;;6295939;22;20638;-90
2022/07/15 12:15:39;;;;;;;5.00;1.30;;;22.70;1.00;;;;;;6291794;22;21146;-90
2022/07/15 12:18:11;;;;;;;1.93;1.50;;;22.00;1.00;;;;;;6295013;22;20458;-90
2022/07/15 12:20:40;;;;;;;3.60;1.20;;;21.50;1.00;;;;;;6292141;22;20453;-90
2022/07/15 12:23:12;;;;;;;4.90;1.30;;;21.50;1.00;;;;;;6293424;22;20408;-89
2022/07/15 12:25:40;;;;;;;2.73;1.03;;;22.10;1.00;;;;;;6293009;22;20462;-89
2022/07/15 12:28:10;;;;;;;2.27;1.10;;;22.80;1.00;;;;;;6293655;22;20413;-90
2022/07/15 12:30:38;;;;;;;2.90;1.37;;;23.60;1.00;;;;;;6278551;22;20399;-89
2022/07/15 12:33:19;;;;;;;2.80;1.40;;;24.50;1.00;;;;;;6291414;22;20466;-91
2022/07/15 12:36:14;;;;;;;3.30;1.53;;;25.50;1.00;;;;;;6293487;22;20434;-90
2022/07/15 12:38:41;;;;;;;7.53;2.17;;;26.30;1.00;;;;;;6293764;22;20431;-90
2022/07/15 12:41:35;;;;;;;1.83;1.17;;;26.70;1.00;;;;;;6293195;22;20450;-90
2022/07/15 12:44:09;;;;;;;2.23;0.80;;;26.40;1.00;;;;;;6280541;22;20431;-89
2022/07/15 12:46:56;;;;;;;3.43;1.00;;;26.70;1.00;;;;;;6276234;22;20478;-90
2022/07/15 12:49:50;;;;;;;1.33;0.80;;;26.10;1.00;;;;;;6283976;22;21344;-88
2022/07/15 12:52:29;;;;;;;1.77;1.00;;;24.50;1.00;;;;;;6242856;22;20469;-88
2022/07/15 12:55:00;;;;;;;2.90;1.40;;;23.40;1.00;;;;;;6291993;22;20459;-89
2022/07/15 12:57:33;;;;;;;2.67;1.50;;;22.60;1.00;;;;;;6290344;22;20388;-88
2022/07/15 13:00:04;;;;;;;5.60;1.10;;;22.20;1.00;;;;;;6292581;22;20422;-88
2022/07/15 13:02:32;;;;;;;1.33;1.00;;;22.10;1.00;;;;;;6291226;22;20427;-91
2022/07/15 13:05:00;;;;;;;2.50;0.83;;;22.00;1.00;;;;;;6291485;22;20392;-91
2022/07/15 13:07:32;;;;;;;3.30;1.40;;;21.90;1.00;;;;;;6278236;22;20386;-89
2022/07/15 13:10:13;;;;;;;2.90;1.27;;;22.00;1.00;;;;;;6277154;22;20423;-89
2022/07/15 13:12:42;;;;;;;4.50;1.20;;;22.40;1.00;;;;;;6294148;22;20411;-90
2022/07/15 13:15:11;;;;;;;2.40;0.97;;;23.40;1.00;;;;;;6291991;22;20415;-91
2022/07/15 13:17:38;;;;;;;2.03;0.90;;;25.50;1.00;;;;;;6292463;22;20383;-91
2022/07/15 13:20:12;;;;;;;2.30;1.10;;;26.70;1.00;;;;;;6291086;22;20391;-88
2022/07/15 13:22:39;;;;;;;2.20;0.87;;;27.70;1.00;;;;;;6290893;22;20490;-89
2022/07/15 13:25:11;;;;;;;2.23;0.97;;;27.60;1.00;;;;;;6293225;22;20422;-89
2022/07/15 13:27:38;;;;;;;8.00;1.27;;;26.70;1.00;;;;;;6289419;22;20502;-89
2022/07/15 13:30:16;;;;;;;2.30;1.07;;;26.00;1.00;;;;;;6291291;22;20399;-89